createdAt,value
2018-10-12T00:01:52.347Z,23.72
2018-10-12T00:04:18.323Z,23.46
2018-10-12T00:06:44.261Z,23.34
2018-10-12T00:09:10.221Z,23.41
2018-10-12T00:11:36.152Z,23.44
2018-10-12T00:14:02.104Z,23.08
2018-10-12T00:16:28.058Z,23.25
2018-10-12T00:18:54.020Z,23.24
2018-10-12T00:21:19.957Z,23.00
2018-10-12T00:23:45.934Z,23.12
2018-10-12T00:26:11.877Z,23.32
2018-10-12T00:28:37.830Z,23.34
2018-10-12T00:31:03.794Z,23.74
2018-10-12T00:33:29.751Z,24.07
2018-10-12T00:35:55.707Z,24.32
2018-10-12T00:38:21.646Z,24.46
2018-10-12T00:40:47.596Z,24.59
2018-10-12T00:43:13.544Z,24.69
2018-10-12T00:45:39.502Z,24.63
2018-10-12T00:48:05.443Z,24.61
2018-10-12T00:50:31.405Z,24.55
2018-10-12T00:52:57.373Z,24.62
2018-10-12T00:55:23.337Z,24.39
2018-10-12T00:57:49.300Z,24.38
2018-10-12T01:00:15.267Z,24.33
2018-10-12T01:02:41.209Z,24.13
2018-10-12T01:05:07.144Z,23.95
2018-10-12T01:07:33.092Z,23.78
2018-10-12T01:09:59.044Z,23.73
2018-10-12T01:12:25.013Z,23.61
2018-10-12T01:14:50.976Z,23.77
2018-10-12T01:17:16.920Z,23.69
2018-10-12T01:19:42.901Z,23.84
2018-10-12T01:22:08.843Z,24.06
2018-10-12T01:24:34.782Z,24.10
2018-10-12T01:27:00.720Z,24.15
2018-10-12T01:29:26.688Z,24.11
2018-10-12T01:31:52.690Z,23.89
2018-10-12T01:34:18.670Z,23.94
2018-10-12T01:36:44.644Z,23.82
2018-10-12T01:39:10.609Z,23.64
2018-10-12T01:41:36.556Z,23.65
2018-10-12T01:44:02.508Z,23.64
2018-10-12T01:46:28.499Z,23.63
2018-10-12T01:48:54.455Z,23.69
2018-10-12T01:51:20.421Z,23.81
2018-10-12T01:53:46.373Z,23.88
2018-10-12T01:56:12.324Z,23.88
2018-10-12T01:58:38.288Z,23.88
2018-10-12T02:01:04.248Z,23.78
2018-10-12T02:03:30.216Z,23.77
2018-10-12T02:05:56.176Z,23.57
2018-10-12T02:08:22.145Z,23.66
2018-10-12T02:10:48.111Z,23.71
2018-10-12T02:13:14.054Z,23.67
2018-10-12T02:15:40.048Z,23.63
2018-10-12T02:18:06.032Z,23.46
2018-10-12T02:20:31.981Z,23.51
2018-10-12T02:22:57.939Z,23.46
2018-10-12T02:25:23.881Z,23.31
2018-10-12T02:27:49.817Z,23.17
2018-10-12T02:30:15.777Z,23.18
2018-10-12T02:32:41.728Z,23.18
2018-10-12T02:35:07.679Z,23.13
2018-10-12T02:37:33.646Z,23.10
2018-10-12T02:39:59.609Z,22.97
2018-10-12T02:42:25.549Z,22.99
2018-10-12T02:44:51.513Z,22.94
2018-10-12T02:47:17.474Z,22.90
2018-10-12T02:49:43.441Z,22.80
2018-10-12T02:52:09.388Z,22.81
2018-10-12T02:54:35.331Z,22.83
2018-10-12T02:57:01.265Z,22.81
2018-10-12T02:59:27.199Z,22.92
2018-10-12T03:01:53.170Z,23.00
2018-10-12T03:04:19.111Z,23.05
2018-10-12T03:06:45.095Z,23.02
2018-10-12T03:09:11.047Z,22.97
2018-10-12T03:11:37.021Z,22.92
2018-10-12T03:14:02.972Z,22.88
2018-10-12T03:16:28.915Z,22.74
2018-10-12T03:18:54.848Z,22.67
2018-10-12T03:21:20.784Z,22.66
2018-10-12T03:23:46.746Z,22.69
2018-10-12T03:26:12.693Z,22.74
2018-10-12T03:28:38.639Z,22.76
2018-10-12T03:31:04.590Z,22.75
2018-10-12T03:33:30.564Z,22.77
2018-10-12T03:35:56.580Z,22.79
2018-10-12T03:38:22.517Z,22.76
2018-10-12T03:40:48.481Z,22.64
2018-10-12T03:43:14.478Z,22.54
2018-10-12T03:45:40.422Z,22.64
2018-10-12T03:48:06.370Z,22.68
2018-10-12T03:50:32.321Z,22.72
2018-10-12T03:52:58.260Z,22.79
2018-10-12T03:55:24.213Z,22.76
2018-10-12T03:57:50.160Z,22.71
2018-10-12T04:00:16.123Z,22.72
2018-10-12T04:02:42.148Z,22.74
2018-10-12T04:05:08.063Z,22.61
2018-10-12T04:07:33.998Z,22.55
2018-10-12T04:10:00.030Z,22.46
2018-10-12T04:12:26.012Z,22.40
2018-10-12T04:14:51.915Z,22.43
2018-10-12T04:17:17.874Z,22.44
2018-10-12T04:19:43.838Z,22.30
2018-10-12T04:22:09.808Z,22.28
2018-10-12T04:24:35.741Z,22.31
2018-10-12T04:27:01.712Z,22.19
2018-10-12T04:29:27.693Z,22.11
2018-10-12T04:31:53.664Z,22.08
2018-10-12T04:34:19.610Z,22.08
2018-10-12T04:36:45.585Z,22.07
2018-10-12T04:39:11.549Z,22.12
2018-10-12T04:41:37.508Z,22.06
2018-10-12T04:44:03.569Z,22.06
2018-10-12T04:46:29.545Z,22.04
2018-10-12T04:48:55.496Z,22.08
2018-10-12T04:51:21.442Z,22.05
2018-10-12T04:53:47.415Z,21.92
2018-10-12T04:56:13.343Z,21.87
2018-10-12T04:58:39.269Z,21.90
2018-10-12T05:01:05.253Z,21.87
2018-10-12T05:03:31.182Z,21.86
2018-10-12T05:05:57.128Z,21.81
2018-10-12T05:08:23.088Z,21.76
2018-10-12T05:10:49.033Z,21.77
2018-10-12T05:13:15.003Z,21.88
2018-10-12T05:15:40.986Z,21.91
2018-10-12T05:18:06.946Z,22.00
2018-10-12T05:20:32.898Z,22.06
2018-10-12T05:22:58.892Z,22.08
2018-10-12T05:25:24.887Z,22.09
2018-10-12T05:27:50.837Z,22.14
2018-10-12T05:30:16.854Z,22.09
2018-10-12T05:32:42.782Z,22.05
2018-10-12T05:35:08.718Z,22.08
2018-10-12T05:37:34.700Z,22.11
2018-10-12T05:40:00.658Z,22.13
2018-10-12T05:42:26.634Z,22.19
2018-10-12T05:44:52.602Z,22.21
2018-10-12T05:47:18.546Z,22.19
2018-10-12T05:49:44.497Z,22.17
2018-10-12T05:52:10.438Z,22.21
2018-10-12T05:54:36.417Z,22.23
2018-10-12T05:57:02.383Z,22.23
2018-10-12T05:59:28.333Z,22.30
2018-10-12T06:01:54.364Z,22.27
2018-10-12T06:04:20.440Z,22.32
2018-10-12T06:06:46.428Z,22.36
2018-10-12T06:09:12.371Z,22.43
2018-10-12T06:11:38.327Z,22.53
2018-10-12T06:14:04.265Z,22.68
2018-10-12T06:16:30.207Z,22.84
2018-10-12T06:18:56.162Z,23.00
2018-10-12T06:21:22.201Z,23.15
2018-10-12T06:23:48.164Z,22.47
2018-10-12T06:26:14.104Z,23.51
2018-10-12T06:28:40.057Z,23.65
2018-10-12T06:31:05.991Z,23.85
2018-10-12T06:33:31.929Z,23.96
2018-10-12T06:35:57.864Z,23.99
2018-10-12T06:38:23.798Z,24.08
2018-10-12T06:40:49.769Z,24.17
2018-10-12T06:43:15.772Z,24.32
2018-10-12T06:45:41.683Z,24.41
2018-10-12T06:48:07.657Z,24.37
2018-10-12T06:50:33.609Z,24.38
2018-10-12T06:52:59.580Z,24.40
2018-10-12T06:55:25.528Z,24.42
2018-10-12T06:57:51.474Z,24.49
2018-10-12T07:00:17.395Z,24.58
2018-10-12T07:02:43.335Z,24.57
2018-10-12T07:05:09.301Z,24.56
2018-10-12T07:07:35.239Z,24.58
2018-10-12T07:10:01.184Z,24.90
2018-10-12T07:12:27.152Z,24.80
2018-10-12T07:14:53.166Z,24.87
2018-10-12T07:17:19.113Z,25.02
2018-10-12T07:19:45.073Z,25.20
2018-10-12T07:22:11.141Z,25.31
2018-10-12T07:24:37.123Z,25.54
2018-10-12T07:27:03.091Z,25.34
2018-10-12T07:29:29.045Z,25.48
2018-10-12T07:31:54.981Z,25.54
2018-10-12T07:34:20.933Z,25.50
2018-10-12T07:36:46.933Z,25.44
2018-10-12T07:39:12.890Z,25.53
2018-10-12T07:41:38.899Z,25.61
2018-10-12T07:44:04.865Z,25.62
2018-10-12T07:46:30.813Z,25.86
2018-10-12T07:48:56.772Z,26.00
2018-10-12T07:51:22.781Z,25.97
2018-10-12T07:53:48.764Z,25.71
2018-10-12T07:56:14.709Z,25.69
2018-10-12T07:58:40.787Z,25.67
2018-10-12T08:01:06.787Z,25.42
2018-10-12T08:03:32.750Z,25.62
2018-10-12T08:05:58.702Z,25.51
2018-10-12T08:08:24.684Z,25.60
2018-10-12T08:10:50.656Z,25.66
2018-10-12T08:13:16.625Z,25.73
2018-10-12T08:15:42.571Z,26.04
2018-10-12T08:18:08.520Z,26.20
2018-10-12T08:20:34.479Z,25.97
2018-10-12T08:23:00.445Z,25.92
2018-10-12T08:25:26.400Z,26.01
2018-10-12T08:27:52.417Z,25.57
2018-10-12T08:30:18.382Z,25.86
2018-10-12T08:32:44.343Z,26.05
2018-10-12T08:35:10.289Z,26.21
2018-10-12T08:37:36.272Z,26.53
2018-10-12T08:40:02.208Z,26.41
2018-10-12T08:42:28.127Z,26.27
2018-10-12T08:44:54.073Z,26.13
2018-10-12T08:47:20.021Z,26.12
2018-10-12T08:49:45.960Z,26.25
2018-10-12T08:52:12.186Z,26.36
2018-10-12T08:54:38.132Z,26.02
2018-10-12T08:57:04.087Z,26.14
2018-10-12T08:59:30.027Z,26.21
2018-10-12T09:01:55.983Z,26.19
2018-10-12T09:04:21.949Z,26.08
2018-10-12T09:06:47.904Z,26.10
2018-10-12T09:09:13.858Z,25.98
2018-10-12T09:11:39.814Z,25.98
2018-10-12T09:14:05.775Z,26.28
2018-10-12T09:16:31.718Z,26.35
2018-10-12T09:18:57.711Z,26.61
2018-10-12T09:21:23.677Z,26.50
2018-10-12T09:23:49.660Z,26.23
2018-10-12T09:26:15.611Z,26.19
2018-10-12T09:28:41.616Z,26.35
2018-10-12T09:31:07.603Z,26.32
2018-10-12T09:33:33.549Z,26.13
2018-10-12T09:35:59.505Z,25.94
2018-10-12T09:38:25.468Z,26.21
2018-10-12T09:40:51.424Z,26.27
2018-10-12T09:43:17.493Z,26.37
2018-10-12T09:45:43.335Z,26.37
2018-10-12T09:48:09.291Z,26.33
2018-10-12T09:50:35.245Z,26.46
2018-10-12T09:53:01.211Z,26.67
2018-10-12T09:55:27.184Z,26.64
2018-10-12T09:57:53.120Z,26.59
2018-10-12T10:00:19.090Z,26.45
2018-10-12T10:02:45.051Z,26.16
2018-10-12T10:05:11.054Z,26.22
2018-10-12T10:07:37.175Z,26.20
2018-10-12T10:10:03.062Z,26.31
2018-10-12T10:12:29.012Z,26.51
2018-10-12T10:14:54.987Z,26.38
2018-10-12T10:17:20.951Z,26.41
2018-10-12T10:19:46.917Z,26.23
2018-10-12T10:24:44.179Z,26.60
2018-10-12T10:27:10.145Z,26.42
2018-10-12T10:29:36.100Z,26.56
2018-10-12T10:32:02.075Z,26.73
2018-10-12T10:34:28.031Z,26.71
2018-10-12T10:36:53.983Z,26.70
2018-10-12T10:39:19.926Z,26.75
2018-10-12T10:41:45.875Z,26.65
2018-10-12T10:44:11.826Z,26.66
2018-10-12T10:46:37.859Z,26.61
2018-10-12T10:49:03.810Z,26.73
2018-10-12T10:51:29.791Z,26.79
2018-10-12T10:53:55.757Z,27.04
2018-10-12T10:56:21.697Z,26.94
2018-10-12T10:58:47.672Z,27.19
2018-10-12T11:01:13.710Z,27.34
2018-10-12T11:03:39.676Z,27.41
2018-10-12T11:06:05.694Z,27.23
2018-10-12T11:08:31.685Z,26.82
2018-10-12T11:10:57.661Z,26.93
2018-10-12T11:13:23.698Z,26.83
2018-10-12T11:15:49.656Z,26.92
2018-10-12T11:18:15.607Z,26.96
2018-10-12T11:20:41.542Z,26.92
2018-10-12T11:23:07.521Z,27.11
2018-10-12T11:25:33.477Z,26.62
2018-10-12T11:27:59.420Z,26.83
2018-10-12T11:30:25.368Z,26.81
2018-10-12T11:32:51.426Z,26.77
2018-10-12T11:35:17.368Z,26.96
2018-10-12T11:37:43.414Z,27.22
2018-10-12T11:40:09.566Z,27.08
2018-10-12T11:42:35.501Z,26.80
2018-10-12T11:45:01.500Z,26.93
2018-10-12T11:47:27.526Z,26.91
2018-10-12T11:49:53.479Z,26.87
2018-10-12T11:52:19.805Z,26.94
2018-10-12T11:54:45.403Z,27.18
2018-10-12T11:57:11.349Z,27.28
2018-10-12T11:59:37.710Z,27.38
2018-10-12T12:02:04.002Z,27.44
2018-10-12T12:04:29.968Z,27.20
2018-10-12T12:06:55.910Z,27.30
2018-10-12T12:09:22.070Z,27.30
2018-10-12T12:11:48.005Z,27.29
2018-10-12T12:14:13.951Z,27.05
2018-10-12T12:16:39.895Z,27.10
2018-10-12T12:19:05.829Z,27.26
2018-10-12T12:21:32.056Z,27.19
2018-10-12T12:23:58.072Z,27.15
2018-10-12T12:26:24.024Z,27.20
2018-10-12T12:28:49.984Z,27.24
2018-10-12T12:31:15.921Z,27.11
2018-10-12T12:33:41.879Z,27.24
2018-10-12T12:36:08.032Z,27.32
2018-10-12T12:38:33.866Z,27.51
2018-10-12T12:40:59.807Z,27.47
2018-10-12T12:43:25.819Z,27.52
2018-10-12T12:45:51.789Z,27.62
2018-10-12T12:48:18.024Z,27.66
2018-10-12T12:50:43.884Z,27.60
2018-10-12T12:53:09.822Z,27.51
2018-10-12T12:55:35.808Z,27.43
2018-10-12T12:58:01.750Z,27.56
2018-10-12T13:00:27.746Z,27.72
2018-10-12T13:02:53.707Z,27.84
2018-10-12T13:05:19.672Z,27.90
2018-10-12T13:07:45.643Z,28.13
2018-10-12T13:10:11.632Z,27.86
2018-10-12T13:12:37.968Z,27.73
2018-10-12T13:15:03.928Z,27.61
2018-10-12T13:17:29.913Z,27.66
2018-10-12T13:19:55.872Z,27.45
2018-10-12T13:22:21.865Z,27.37
2018-10-12T13:24:47.848Z,27.49
2018-10-12T13:27:13.784Z,27.77
2018-10-12T13:29:39.850Z,28.07
2018-10-12T13:32:06.016Z,27.75
2018-10-12T13:34:31.997Z,27.65
2018-10-12T13:36:57.991Z,27.90
2018-10-12T13:39:23.947Z,27.62
2018-10-12T13:41:49.900Z,27.78
2018-10-12T13:44:15.844Z,27.91
2018-10-12T13:46:41.906Z,27.77
2018-10-12T13:49:07.824Z,27.75
2018-10-12T13:51:33.787Z,27.79
2018-10-12T13:53:59.746Z,27.67
2018-10-12T13:56:25.704Z,27.61
2018-10-12T13:58:51.654Z,27.83
2018-10-12T14:01:17.598Z,28.00
2018-10-12T14:03:43.533Z,27.94
2018-10-12T14:06:09.609Z,27.76
2018-10-12T14:08:35.580Z,27.71
2018-10-12T14:11:01.960Z,27.68
2018-10-12T14:13:27.906Z,27.79
2018-10-12T14:15:53.845Z,27.89
2018-10-12T14:18:19.821Z,28.10
2018-10-12T14:20:45.797Z,28.17
2018-10-12T14:23:11.733Z,28.10
2018-10-12T14:25:37.683Z,28.12
2018-10-12T14:28:03.633Z,28.00
2018-10-12T14:30:29.592Z,28.00
2018-10-12T14:32:55.604Z,28.05
2018-10-12T14:35:21.611Z,28.11
2018-10-12T14:37:47.594Z,28.01
2018-10-12T14:40:13.765Z,28.10
2018-10-12T14:42:39.754Z,27.95
2018-10-12T14:45:05.709Z,27.99
2018-10-12T14:47:31.660Z,27.96
2018-10-12T14:49:57.713Z,28.16
2018-10-12T14:52:23.663Z,28.05
2018-10-12T14:54:49.620Z,28.06
2018-10-12T14:57:15.610Z,28.10
2018-10-12T14:59:41.581Z,28.19
2018-10-12T15:02:07.513Z,28.25
2018-10-12T15:04:33.545Z,28.10
2018-10-12T15:06:59.528Z,28.05
2018-10-12T15:09:25.476Z,28.04
2018-10-12T15:11:51.501Z,28.07
2018-10-12T15:14:17.393Z,28.21
2018-10-12T15:16:43.357Z,28.27
2018-10-12T15:19:09.347Z,28.41
2018-10-12T15:21:35.364Z,28.23
2018-10-12T15:24:01.313Z,28.37
2018-10-12T15:26:27.282Z,28.33
2018-10-12T15:28:53.226Z,28.09
2018-10-12T15:31:19.200Z,27.96
2018-10-12T15:33:45.153Z,27.91
2018-10-12T15:36:11.117Z,27.88
2018-10-12T15:38:37.155Z,27.97
2018-10-12T15:41:03.018Z,27.83
2018-10-12T15:43:28.942Z,27.98
2018-10-12T15:45:55.236Z,27.99
2018-10-12T15:48:21.180Z,27.92
2018-10-12T15:50:47.135Z,28.04
2018-10-12T15:53:13.090Z,28.15
2018-10-12T15:55:39.120Z,28.15
2018-10-12T15:58:05.456Z,28.06
2018-10-12T16:00:31.464Z,27.80
2018-10-12T16:02:57.421Z,27.79
2018-10-12T16:05:23.383Z,27.55
2018-10-12T16:07:49.343Z,27.45
2018-10-12T16:10:15.303Z,27.49
2018-10-12T16:12:41.235Z,27.34
2018-10-12T16:15:07.192Z,27.30
2018-10-12T16:17:33.187Z,27.32
2018-10-12T16:19:59.152Z,27.28
2018-10-12T16:22:25.131Z,27.07
2018-10-12T16:24:51.097Z,26.91
2018-10-12T16:27:17.058Z,26.73
2018-10-12T16:29:43.130Z,26.86
2018-10-12T16:32:09.188Z,26.93
2018-10-12T16:34:35.180Z,26.98
2018-10-12T16:37:01.161Z,26.85
2018-10-12T16:39:27.117Z,26.81
2018-10-12T16:41:53.109Z,26.89
2018-10-12T16:44:19.139Z,26.85
2018-10-12T16:46:45.306Z,26.88
2018-10-12T16:49:11.363Z,26.75
2018-10-12T16:51:37.361Z,26.73
2018-10-12T16:54:03.577Z,26.99
2018-10-12T16:56:29.563Z,27.20
2018-10-12T16:58:55.516Z,27.09
2018-10-12T17:01:21.482Z,26.93
2018-10-12T17:03:47.428Z,26.97
2018-10-12T17:06:13.411Z,27.16
2018-10-12T17:08:39.353Z,27.17
2018-10-12T17:11:05.303Z,27.18
2018-10-12T17:13:31.290Z,27.24
2018-10-12T17:15:57.307Z,27.33
2018-10-12T17:18:23.284Z,27.41
2018-10-12T17:20:49.235Z,27.33
2018-10-12T17:23:15.177Z,27.24
2018-10-12T17:25:41.168Z,27.33
2018-10-12T17:28:07.151Z,27.33
2018-10-12T17:30:33.195Z,27.29
2018-10-12T17:32:59.073Z,27.21
2018-10-12T17:35:25.030Z,27.16
2018-10-12T17:37:50.970Z,27.04
2018-10-12T17:40:16.929Z,26.96
2018-10-12T17:42:42.969Z,27.03
2018-10-12T17:45:08.909Z,26.85
2018-10-12T17:47:34.851Z,26.96
2018-10-12T17:50:00.786Z,26.96
2018-10-12T17:52:26.745Z,26.96
2018-10-12T17:54:52.703Z,26.98
2018-10-12T17:57:18.685Z,26.97
2018-10-12T17:59:44.693Z,26.85
2018-10-12T18:02:11.143Z,26.84
2018-10-12T18:04:37.084Z,26.83
2018-10-12T18:07:03.066Z,26.76
2018-10-12T18:09:28.993Z,26.59
2018-10-12T18:11:54.921Z,26.43
2018-10-12T18:14:20.975Z,26.35
2018-10-12T18:16:46.860Z,26.24
2018-10-12T18:19:13.092Z,26.10
2018-10-12T18:21:39.139Z,25.98
2018-10-12T18:24:05.096Z,25.90
2018-10-12T18:26:31.198Z,25.71
2018-10-12T18:28:57.157Z,25.72
2018-10-12T18:31:23.093Z,25.71
2018-10-12T18:33:49.160Z,25.68
2018-10-12T18:36:15.129Z,25.65
2018-10-12T18:38:41.092Z,25.60
2018-10-12T18:41:07.096Z,25.60
2018-10-12T18:43:33.016Z,25.59
2018-10-12T18:45:58.941Z,25.67
2018-10-12T18:48:24.912Z,25.55
2018-10-12T18:50:50.962Z,25.49
2018-10-12T18:53:16.897Z,25.44
2018-10-12T18:55:42.961Z,25.37
2018-10-12T18:58:08.993Z,25.35
2018-10-12T19:00:34.958Z,25.41
2018-10-12T19:03:01.024Z,25.41
2018-10-12T19:05:27.040Z,25.38
2018-10-12T19:07:53.070Z,25.36
2018-10-12T19:10:19.007Z,25.37
2018-10-12T19:12:44.953Z,25.21
2018-10-12T19:15:10.895Z,25.26
2018-10-12T19:17:36.847Z,25.36
2018-10-12T19:20:02.801Z,25.38
2018-10-12T19:22:28.786Z,25.38
2018-10-12T19:24:54.784Z,25.43
2018-10-12T19:27:20.767Z,25.51
2018-10-12T19:29:46.734Z,25.51
2018-10-12T19:32:12.687Z,25.25
2018-10-12T19:34:38.657Z,25.25
2018-10-12T19:37:04.634Z,25.28
2018-10-12T19:39:30.701Z,25.38
2018-10-12T19:41:56.712Z,25.20
2018-10-12T19:44:22.784Z,25.04
2018-10-12T19:46:48.870Z,25.10
2018-10-12T19:49:14.832Z,25.21
2018-10-12T19:51:40.825Z,25.26
2018-10-12T19:54:07.848Z,25.29
2018-10-12T19:56:33.863Z,25.29
2018-10-12T19:58:59.881Z,25.19
2018-10-12T20:01:26.095Z,24.98
2018-10-12T20:03:52.082Z,24.89
2018-10-12T20:06:18.037Z,24.85
2018-10-12T20:08:43.976Z,24.88
2018-10-12T20:11:09.957Z,24.92
2018-10-12T20:13:35.924Z,24.80
2018-10-12T20:16:01.983Z,24.59
2018-10-12T20:18:28.028Z,24.49
2018-10-12T20:20:55.034Z,24.35
2018-10-12T20:23:21.103Z,24.26
2018-10-12T20:25:47.118Z,24.03
2018-10-12T20:28:13.210Z,23.86
2018-10-12T20:30:39.272Z,23.81
2018-10-12T20:33:05.296Z,23.75
2018-10-12T20:35:31.259Z,23.56
2018-10-12T20:37:57.353Z,23.61
2018-10-12T20:40:23.320Z,23.62
2018-10-12T20:42:49.278Z,23.61
2018-10-12T20:45:15.248Z,23.42
2018-10-12T20:47:41.197Z,23.36
2018-10-12T20:50:07.165Z,23.34
2018-10-12T20:52:33.119Z,23.43
2018-10-12T20:54:59.048Z,23.42
2018-10-12T20:57:25.005Z,23.44
2018-10-12T20:59:50.960Z,23.40
2018-10-12T21:02:16.910Z,23.38
2018-10-12T21:04:42.856Z,23.39
2018-10-12T21:07:08.830Z,23.29
2018-10-12T21:09:34.763Z,23.33
2018-10-12T21:12:00.737Z,23.06
2018-10-12T21:14:26.690Z,23.01
2018-10-12T21:16:52.755Z,23.01
2018-10-12T21:19:18.670Z,23.12
2018-10-12T21:21:44.668Z,23.14
2018-10-12T21:24:10.626Z,23.11
2018-10-12T21:26:36.585Z,23.18
2018-10-12T21:29:02.548Z,23.27
2018-10-12T21:31:28.495Z,23.38
2018-10-12T21:33:54.432Z,23.51
2018-10-12T21:36:20.369Z,23.57
2018-10-12T21:38:46.298Z,23.63
2018-10-12T21:41:12.242Z,23.70
2018-10-12T21:43:38.176Z,23.73
2018-10-12T21:46:04.136Z,23.68
2018-10-12T21:48:30.096Z,23.72
2018-10-12T21:50:56.037Z,23.64
2018-10-12T21:53:21.985Z,23.67
2018-10-12T21:55:47.943Z,23.70
2018-10-12T21:58:13.878Z,23.74
2018-10-12T22:00:39.810Z,23.76
2018-10-12T22:03:05.759Z,23.72
2018-10-12T22:05:31.693Z,23.74
2018-10-12T22:07:57.645Z,23.69
2018-10-12T22:10:23.601Z,23.70
2018-10-12T22:12:49.526Z,23.73
2018-10-12T22:15:15.476Z,23.75
2018-10-12T22:17:41.440Z,23.75
2018-10-12T22:20:07.391Z,23.64
2018-10-12T22:22:33.336Z,23.60
2018-10-12T22:24:59.388Z,23.56
2018-10-12T22:27:25.365Z,23.60
2018-10-12T22:29:51.297Z,23.58
2018-10-12T22:32:17.237Z,23.58
2018-10-12T22:34:43.173Z,23.44
2018-10-12T22:37:09.113Z,23.48
2018-10-12T22:39:35.067Z,23.50
2018-10-12T22:42:01.023Z,23.46
2018-10-12T22:44:26.970Z,23.38
2018-10-12T22:46:53.008Z,23.32
2018-10-12T22:49:18.976Z,23.31
2018-10-12T22:51:44.902Z,23.18
2018-10-12T22:54:10.867Z,23.10
2018-10-12T22:56:36.814Z,23.04
2018-10-12T22:59:02.774Z,22.96
2018-10-12T23:01:28.714Z,22.98
2018-10-12T23:03:54.657Z,22.84
2018-10-12T23:06:20.604Z,22.72
2018-10-12T23:08:46.591Z,22.67
2018-10-12T23:11:12.549Z,22.58
2018-10-12T23:13:38.522Z,22.58
2018-10-12T23:16:04.462Z,22.59
2018-10-12T23:18:30.443Z,22.71
2018-10-12T23:20:56.399Z,22.81
2018-10-12T23:23:22.353Z,22.73
2018-10-12T23:25:48.308Z,22.78
2018-10-12T23:28:14.280Z,22.79
2018-10-12T23:30:40.236Z,22.90
2018-10-12T23:33:06.203Z,22.91
2018-10-12T23:35:32.159Z,23.03
2018-10-12T23:37:58.119Z,23.10
2018-10-12T23:40:24.053Z,23.15
2018-10-12T23:42:50.018Z,23.16
2018-10-12T23:45:15.958Z,23.15
2018-10-12T23:47:41.895Z,23.03
2018-10-12T23:50:07.826Z,23.05
2018-10-12T23:52:33.788Z,23.11
2018-10-12T23:54:59.746Z,23.14
2018-10-12T23:57:25.682Z,23.17
2018-10-12T23:59:51.632Z,23.19
